sensor_id;sensor_type;location;lat;lon;timestamp;P1;durP1;ratioP1;P2;durP2;ratioP2
49131;SDS011;35149;51.196;6.204;2024-01-30T00:01:33;11.52;;;9.10;;
49131;SDS011;35149;51.196;6.204;2024-01-30T00:04:01;10.05;;;9.05;;
49131;SDS011;35149;51.196;6.204;2024-01-30T00:06:30;9.65;;;8.65;;
49131;SDS011;35149;51.196;6.204;2024-01-30T00:08:58;14.02;;;8.90;;
49131;SDS011;35149;51.196;6.204;2024-01-30T00:11:30;10.93;;;9.02;;
49131;SDS011;35149;51.196;6.204;2024-01-30T00:13:56;9.98;;;8.82;;
49131;SDS011;35149;51.196;6.204;2024-01-30T00:16:32;11.13;;;8.80;;
49131;SDS011;35149;51.196;6.204;2024-01-30T00:18:59;11.82;;;8.52;;
49131;SDS011;35149;51.196;6.204;2024-01-30T00:21:28;13.10;;;9.38;;
49131;SDS011;35149;51.196;6.204;2024-01-30T00:23:57;11.80;;;9.63;;
49131;SDS011;35149;51.196;6.204;2024-01-30T00:26:25;14.38;;;9.82;;
49131;SDS011;35149;51.196;6.204;2024-01-30T00:28:54;11.07;;;9.15;;
49131;SDS011;35149;51.196;6.204;2024-01-30T00:31:23;13.40;;;9.40;;
49131;SDS011;35149;51.196;6.204;2024-01-30T00:33:51;10.95;;;9.02;;
49131;SDS011;35149;51.196;6.204;2024-01-30T00:36:21;9.50;;;8.50;;
49131;SDS011;35149;51.196;6.204;2024-01-30T00:38:48;9.98;;;8.43;;
49131;SDS011;35149;51.196;6.204;2024-01-30T00:41:17;11.30;;;9.23;;
49131;SDS011;35149;51.196;6.204;2024-01-30T00:43:45;13.50;;;8.85;;
49131;SDS011;35149;51.196;6.204;2024-01-30T00:46:11;11.13;;;8.82;;
49131;SDS011;35149;51.196;6.204;2024-01-30T00:48:41;9.40;;;7.68;;
49131;SDS011;35149;51.196;6.204;2024-01-30T00:51:10;9.45;;;7.93;;
49131;SDS011;35149;51.196;6.204;2024-01-30T00:53:38;10.98;;;9.20;;
49131;SDS011;35149;51.196;6.204;2024-01-30T00:56:04;11.18;;;8.32;;
49131;SDS011;35149;51.196;6.204;2024-01-30T00:58:34;10.18;;;7.88;;
49131;SDS011;35149;51.196;6.204;2024-01-30T01:01:07;10.95;;;8.43;;
49131;SDS011;35149;51.196;6.204;2024-01-30T01:03:45;9.13;;;8.15;;
49131;SDS011;35149;51.196;6.204;2024-01-30T01:06:20;10.15;;;8.15;;
49131;SDS011;35149;51.196;6.204;2024-01-30T01:08:46;13.13;;;8.85;;
49131;SDS011;35149;51.196;6.204;2024-01-30T01:11:15;9.93;;;8.90;;
49131;SDS011;35149;51.196;6.204;2024-01-30T01:13:42;11.23;;;8.93;;
49131;SDS011;35149;51.196;6.204;2024-01-30T01:16:09;10.98;;;8.60;;
49131;SDS011;35149;51.196;6.204;2024-01-30T01:18:35;12.95;;;8.48;;
49131;SDS011;35149;51.196;6.204;2024-01-30T01:21:05;9.55;;;7.93;;
49131;SDS011;35149;51.196;6.204;2024-01-30T01:23:32;13.05;;;9.45;;
49131;SDS011;35149;51.196;6.204;2024-01-30T01:25:58;9.57;;;7.78;;
49131;SDS011;35149;51.196;6.204;2024-01-30T01:28:27;11.50;;;9.18;;
49131;SDS011;35149;51.196;6.204;2024-01-30T01:30:54;10.18;;;8.98;;
49131;SDS011;35149;51.196;6.204;2024-01-30T01:33:27;11.40;;;8.93;;
49131;SDS011;35149;51.196;6.204;2024-01-30T01:35:55;10.98;;;8.45;;
49131;SDS011;35149;51.196;6.204;2024-01-30T01:38:24;9.63;;;8.60;;
49131;SDS011;35149;51.196;6.204;2024-01-30T01:40:55;11.15;;;9.52;;
49131;SDS011;35149;51.196;6.204;2024-01-30T01:43:22;9.50;;;8.50;;
49131;SDS011;35149;51.196;6.204;2024-01-30T01:45:53;12.33;;;9.07;;
49131;SDS011;35149;51.196;6.204;2024-01-30T01:48:21;11.57;;;8.77;;
49131;SDS011;35149;51.196;6.204;2024-01-30T01:50:51;10.50;;;8.57;;
49131;SDS011;35149;51.196;6.204;2024-01-30T01:53:31;10.43;;;8.85;;
49131;SDS011;35149;51.196;6.204;2024-01-30T01:56:01;11.05;;;8.75;;
49131;SDS011;35149;51.196;6.204;2024-01-30T01:58:27;10.88;;;8.95;;
49131;SDS011;35149;51.196;6.204;2024-01-30T02:01:01;11.65;;;9.10;;
49131;SDS011;35149;51.196;6.204;2024-01-30T02:03:33;12.00;;;9.25;;
49131;SDS011;35149;51.196;6.204;2024-01-30T02:06:03;12.95;;;9.63;;
49131;SDS011;35149;51.196;6.204;2024-01-30T02:08:30;11.00;;;9.27;;
49131;SDS011;35149;51.196;6.204;2024-01-30T02:10:58;15.00;;;10.38;;
49131;SDS011;35149;51.196;6.204;2024-01-30T02:13:30;11.48;;;9.45;;
49131;SDS011;35149;51.196;6.204;2024-01-30T02:15:59;15.45;;;9.52;;
49131;SDS011;35149;51.196;6.204;2024-01-30T02:18:26;11.90;;;8.98;;
49131;SDS011;35149;51.196;6.204;2024-01-30T02:20:55;13.10;;;8.80;;
49131;SDS011;35149;51.196;6.204;2024-01-30T02:23:30;10.57;;;9.48;;
49131;SDS011;35149;51.196;6.204;2024-01-30T02:26:01;13.45;;;9.25;;
49131;SDS011;35149;51.196;6.204;2024-01-30T02:28:31;12.13;;;9.18;;
49131;SDS011;35149;51.196;6.204;2024-01-30T02:31:00;12.68;;;9.32;;
49131;SDS011;35149;51.196;6.204;2024-01-30T02:33:29;11.77;;;9.50;;
49131;SDS011;35149;51.196;6.204;2024-01-30T02:35:59;15.80;;;10.95;;
49131;SDS011;35149;51.196;6.204;2024-01-30T02:38:26;10.95;;;9.43;;
49131;SDS011;35149;51.196;6.204;2024-01-30T02:40:56;12.98;;;9.65;;
49131;SDS011;35149;51.196;6.204;2024-01-30T02:43:25;12.45;;;9.82;;
49131;SDS011;35149;51.196;6.204;2024-01-30T02:45:52;12.27;;;9.77;;
49131;SDS011;35149;51.196;6.204;2024-01-30T02:48:29;12.52;;;9.63;;
49131;SDS011;35149;51.196;6.204;2024-01-30T02:50:55;13.00;;;10.05;;
49131;SDS011;35149;51.196;6.204;2024-01-30T02:53:27;12.07;;;9.90;;
49131;SDS011;35149;51.196;6.204;2024-01-30T02:55:56;12.85;;;9.57;;
49131;SDS011;35149;51.196;6.204;2024-01-30T02:58:28;12.18;;;9.38;;
49131;SDS011;35149;51.196;6.204;2024-01-30T03:00:56;12.50;;;9.30;;
49131;SDS011;35149;51.196;6.204;2024-01-30T03:03:26;9.48;;;8.43;;
49131;SDS011;35149;51.196;6.204;2024-01-30T03:05:52;13.55;;;9.88;;
49131;SDS011;35149;51.196;6.204;2024-01-30T03:08:19;10.32;;;8.85;;
49131;SDS011;35149;51.196;6.204;2024-01-30T03:10:47;11.60;;;8.57;;
49131;SDS011;35149;51.196;6.204;2024-01-30T03:13:19;12.68;;;9.82;;
49131;SDS011;35149;51.196;6.204;2024-01-30T03:15:48;12.77;;;9.50;;
49131;SDS011;35149;51.196;6.204;2024-01-30T03:18:18;12.23;;;9.82;;
49131;SDS011;35149;51.196;6.204;2024-01-30T03:20:51;9.95;;;8.05;;
49131;SDS011;35149;51.196;6.204;2024-01-30T03:23:20;11.05;;;9.57;;
49131;SDS011;35149;51.196;6.204;2024-01-30T03:25:46;10.32;;;9.23;;
49131;SDS011;35149;51.196;6.204;2024-01-30T03:28:13;11.82;;;8.85;;
49131;SDS011;35149;51.196;6.204;2024-01-30T03:30:40;10.18;;;8.95;;
49131;SDS011;35149;51.196;6.204;2024-01-30T03:33:10;8.95;;;7.88;;
49131;SDS011;35149;51.196;6.204;2024-01-30T03:35:37;12.43;;;9.85;;
49131;SDS011;35149;51.196;6.204;2024-01-30T03:38:04;11.23;;;8.93;;
49131;SDS011;35149;51.196;6.204;2024-01-30T03:40:32;10.50;;;8.57;;
49131;SDS011;35149;51.196;6.204;2024-01-30T03:43:02;13.15;;;9.45;;
49131;SDS011;35149;51.196;6.204;2024-01-30T03:45:31;10.35;;;8.85;;
49131;SDS011;35149;51.196;6.204;2024-01-30T03:47:59;11.05;;;9.30;;
49131;SDS011;35149;51.196;6.204;2024-01-30T03:50:26;10.38;;;8.57;;
49131;SDS011;35149;51.196;6.204;2024-01-30T03:52:54;10.20;;;8.55;;
49131;SDS011;35149;51.196;6.204;2024-01-30T03:55:23;14.85;;;9.70;;
49131;SDS011;35149;51.196;6.204;2024-01-30T03:57:55;9.95;;;7.85;;
49131;SDS011;35149;51.196;6.204;2024-01-30T04:00:22;13.30;;;9.23;;
49131;SDS011;35149;51.196;6.204;2024-01-30T04:02:50;10.13;;;8.45;;
49131;SDS011;35149;51.196;6.204;2024-01-30T04:05:17;11.55;;;8.68;;
49131;SDS011;35149;51.196;6.204;2024-01-30T04:07:46;13.70;;;9.25;;
49131;SDS011;35149;51.196;6.204;2024-01-30T04:10:13;10.77;;;8.70;;
49131;SDS011;35149;51.196;6.204;2024-01-30T04:12:51;12.80;;;9.05;;
49131;SDS011;35149;51.196;6.204;2024-01-30T04:15:20;10.07;;;8.77;;
49131;SDS011;35149;51.196;6.204;2024-01-30T04:17:47;8.82;;;7.80;;
49131;SDS011;35149;51.196;6.204;2024-01-30T04:20:16;12.00;;;8.88;;
49131;SDS011;35149;51.196;6.204;2024-01-30T04:22:44;10.00;;;8.93;;
49131;SDS011;35149;51.196;6.204;2024-01-30T04:25:17;13.70;;;9.00;;
49131;SDS011;35149;51.196;6.204;2024-01-30T04:27:44;12.00;;;8.70;;
49131;SDS011;35149;51.196;6.204;2024-01-30T04:30:16;12.98;;;9.40;;
49131;SDS011;35149;51.196;6.204;2024-01-30T04:32:47;9.25;;;8.13;;
49131;SDS011;35149;51.196;6.204;2024-01-30T04:35:14;12.88;;;9.23;;
49131;SDS011;35149;51.196;6.204;2024-01-30T04:37:41;11.15;;;9.32;;
49131;SDS011;35149;51.196;6.204;2024-01-30T04:40:13;12.18;;;9.15;;
49131;SDS011;35149;51.196;6.204;2024-01-30T04:42:48;10.85;;;8.95;;
49131;SDS011;35149;51.196;6.204;2024-01-30T04:45:15;11.52;;;9.00;;
49131;SDS011;35149;51.196;6.204;2024-01-30T04:50:16;9.30;;;8.25;;
49131;SDS011;35149;51.196;6.204;2024-01-30T04:52:45;9.98;;;7.45;;
49131;SDS011;35149;51.196;6.204;2024-01-30T04:55:15;10.18;;;8.40;;
49131;SDS011;35149;51.196;6.204;2024-01-30T04:57:45;10.30;;;8.38;;
49131;SDS011;35149;51.196;6.204;2024-01-30T05:00:15;12.38;;;8.60;;
49131;SDS011;35149;51.196;6.204;2024-01-30T05:02:44;10.25;;;8.82;;
49131;SDS011;35149;51.196;6.204;2024-01-30T05:05:13;8.90;;;8.00;;
49131;SDS011;35149;51.196;6.204;2024-01-30T05:07:41;8.55;;;7.60;;
49131;SDS011;35149;51.196;6.204;2024-01-30T05:10:07;9.32;;;7.63;;
49131;SDS011;35149;51.196;6.204;2024-01-30T05:12:38;9.30;;;7.40;;
49131;SDS011;35149;51.196;6.204;2024-01-30T05:15:09;8.93;;;7.35;;
49131;SDS011;35149;51.196;6.204;2024-01-30T05:17:35;10.43;;;8.02;;
49131;SDS011;35149;51.196;6.204;2024-01-30T05:20:08;9.63;;;7.43;;
49131;SDS011;35149;51.196;6.204;2024-01-30T05:22:37;8.30;;;7.28;;
49131;SDS011;35149;51.196;6.204;2024-01-30T05:25:05;9.07;;;8.07;;
49131;SDS011;35149;51.196;6.204;2024-01-30T05:27:34;8.10;;;7.15;;
49131;SDS011;35149;51.196;6.204;2024-01-30T05:30:06;10.13;;;8.07;;
49131;SDS011;35149;51.196;6.204;2024-01-30T05:32:33;9.13;;;7.53;;
49131;SDS011;35149;51.196;6.204;2024-01-30T05:35:00;10.52;;;7.95;;
49131;SDS011;35149;51.196;6.204;2024-01-30T05:37:27;8.98;;;7.20;;
49131;SDS011;35149;51.196;6.204;2024-01-30T05:39:54;9.93;;;7.53;;
49131;SDS011;35149;51.196;6.204;2024-01-30T05:42:20;10.65;;;8.70;;
49131;SDS011;35149;51.196;6.204;2024-01-30T05:44:50;9.40;;;7.97;;
49131;SDS011;35149;51.196;6.204;2024-01-30T05:47:16;11.45;;;10.25;;
49131;SDS011;35149;51.196;6.204;2024-01-30T05:49:46;12.38;;;11.07;;
49131;SDS011;35149;51.196;6.204;2024-01-30T05:52:13;13.88;;;12.40;;
49131;SDS011;35149;51.196;6.204;2024-01-30T05:54:41;13.02;;;11.60;;
49131;SDS011;35149;51.196;6.204;2024-01-30T05:57:08;14.20;;;11.32;;
49131;SDS011;35149;51.196;6.204;2024-01-30T05:59:34;11.80;;;10.57;;
49131;SDS011;35149;51.196;6.204;2024-01-30T06:02:06;11.30;;;10.10;;
49131;SDS011;35149;51.196;6.204;2024-01-30T06:04:32;12.90;;;10.30;;
49131;SDS011;35149;51.196;6.204;2024-01-30T06:07:02;11.18;;;9.30;;
49131;SDS011;35149;51.196;6.204;2024-01-30T06:09:29;12.52;;;9.43;;
49131;SDS011;35149;51.196;6.204;2024-01-30T06:11:56;11.52;;;8.68;;
49131;SDS011;35149;51.196;6.204;2024-01-30T06:14:22;10.88;;;8.07;;
49131;SDS011;35149;51.196;6.204;2024-01-30T06:16:49;9.65;;;7.97;;
49131;SDS011;35149;51.196;6.204;2024-01-30T06:19:16;9.05;;;8.15;;
49131;SDS011;35149;51.196;6.204;2024-01-30T06:21:43;9.77;;;7.60;;
49131;SDS011;35149;51.196;6.204;2024-01-30T06:24:10;9.57;;;7.53;;
49131;SDS011;35149;51.196;6.204;2024-01-30T06:26:39;8.90;;;7.88;;
49131;SDS011;35149;51.196;6.204;2024-01-30T06:29:06;10.35;;;8.25;;
49131;SDS011;35149;51.196;6.204;2024-01-30T06:31:40;11.02;;;8.15;;
49131;SDS011;35149;51.196;6.204;2024-01-30T06:34:08;10.50;;;8.35;;
49131;SDS011;35149;51.196;6.204;2024-01-30T06:36:36;9.80;;;7.80;;
49131;SDS011;35149;51.196;6.204;2024-01-30T06:39:02;10.25;;;9.15;;
49131;SDS011;35149;51.196;6.204;2024-01-30T06:41:30;12.90;;;10.02;;
49131;SDS011;35149;51.196;6.204;2024-01-30T06:43:56;11.63;;;10.07;;
49131;SDS011;35149;51.196;6.204;2024-01-30T06:46:23;12.88;;;9.57;;
49131;SDS011;35149;51.196;6.204;2024-01-30T06:48:50;11.35;;;9.88;;
49131;SDS011;35149;51.196;6.204;2024-01-30T06:51:16;9.90;;;8.90;;
49131;SDS011;35149;51.196;6.204;2024-01-30T06:53:44;10.88;;;9.73;;
49131;SDS011;35149;51.196;6.204;2024-01-30T06:56:11;9.70;;;8.70;;
49131;SDS011;35149;51.196;6.204;2024-01-30T06:58:41;10.55;;;8.98;;
49131;SDS011;35149;51.196;6.204;2024-01-30T07:01:08;10.73;;;8.98;;
49131;SDS011;35149;51.196;6.204;2024-01-30T07:03:36;11.23;;;9.02;;
49131;SDS011;35149;51.196;6.204;2024-01-30T07:06:02;10.32;;;8.02;;
49131;SDS011;35149;51.196;6.204;2024-01-30T07:08:29;13.65;;;8.88;;
49131;SDS011;35149;51.196;6.204;2024-01-30T07:10:56;10.20;;;8.43;;
49131;SDS011;35149;51.196;6.204;2024-01-30T07:13:27;11.75;;;9.20;;
49131;SDS011;35149;51.196;6.204;2024-01-30T07:15:54;9.48;;;7.95;;
49131;SDS011;35149;51.196;6.204;2024-01-30T07:18:21;8.88;;;7.97;;
49131;SDS011;35149;51.196;6.204;2024-01-30T07:20:50;11.20;;;8.15;;
49131;SDS011;35149;51.196;6.204;2024-01-30T07:23:17;10.45;;;7.75;;
49131;SDS011;35149;51.196;6.204;2024-01-30T07:25:44;10.38;;;8.02;;
49131;SDS011;35149;51.196;6.204;2024-01-30T07:28:15;12.52;;;8.70;;
49131;SDS011;35149;51.196;6.204;2024-01-30T07:30:44;10.00;;;8.27;;
49131;SDS011;35149;51.196;6.204;2024-01-30T07:33:12;12.73;;;9.43;;
49131;SDS011;35149;51.196;6.204;2024-01-30T07:35:39;12.52;;;8.95;;
49131;SDS011;35149;51.196;6.204;2024-01-30T07:38:05;12.73;;;9.40;;
49131;SDS011;35149;51.196;6.204;2024-01-30T07:40:32;12.98;;;9.63;;
49131;SDS011;35149;51.196;6.204;2024-01-30T07:42:59;11.68;;;9.52;;
49131;SDS011;35149;51.196;6.204;2024-01-30T07:45:27;12.85;;;10.73;;
49131;SDS011;35149;51.196;6.204;2024-01-30T07:47:58;12.77;;;11.23;;
49131;SDS011;35149;51.196;6.204;2024-01-30T07:50:28;13.20;;;10.50;;
49131;SDS011;35149;51.196;6.204;2024-01-30T07:52:55;12.05;;;10.75;;
49131;SDS011;35149;51.196;6.204;2024-01-30T07:55:23;14.02;;;10.90;;
49131;SDS011;35149;51.196;6.204;2024-01-30T07:57:58;12.05;;;9.80;;
49131;SDS011;35149;51.196;6.204;2024-01-30T08:00:26;12.82;;;10.35;;
49131;SDS011;35149;51.196;6.204;2024-01-30T08:02:53;11.02;;;9.63;;
49131;SDS011;35149;51.196;6.204;2024-01-30T08:05:21;12.18;;;9.45;;
49131;SDS011;35149;51.196;6.204;2024-01-30T08:07:49;12.30;;;9.48;;
49131;SDS011;35149;51.196;6.204;2024-01-30T08:10:16;12.40;;;9.57;;
49131;SDS011;35149;51.196;6.204;2024-01-30T08:12:45;17.15;;;11.15;;
49131;SDS011;35149;51.196;6.204;2024-01-30T08:15:11;14.52;;;10.77;;
49131;SDS011;35149;51.196;6.204;2024-01-30T08:17:39;15.68;;;10.80;;
49131;SDS011;35149;51.196;6.204;2024-01-30T08:20:06;14.73;;;10.73;;
49131;SDS011;35149;51.196;6.204;2024-01-30T08:22:34;13.68;;;11.05;;
49131;SDS011;35149;51.196;6.204;2024-01-30T08:25:04;11.95;;;8.90;;
49131;SDS011;35149;51.196;6.204;2024-01-30T08:27:31;14.85;;;10.25;;
49131;SDS011;35149;51.196;6.204;2024-01-30T08:29:57;9.60;;;8.52;;
49131;SDS011;35149;51.196;6.204;2024-01-30T08:32:24;11.05;;;9.13;;
49131;SDS011;35149;51.196;6.204;2024-01-30T08:34:51;11.57;;;9.07;;
49131;SDS011;35149;51.196;6.204;2024-01-30T08:37:18;13.98;;;9.70;;
49131;SDS011;35149;51.196;6.204;2024-01-30T08:39:44;10.18;;;9.00;;
49131;SDS011;35149;51.196;6.204;2024-01-30T08:42:11;9.35;;;8.35;;
49131;SDS011;35149;51.196;6.204;2024-01-30T08:44:39;11.02;;;8.52;;
49131;SDS011;35149;51.196;6.204;2024-01-30T08:47:06;11.93;;;8.95;;
49131;SDS011;35149;51.196;6.204;2024-01-30T08:49:33;10.20;;;8.73;;
49131;SDS011;35149;51.196;6.204;2024-01-30T08:52:00;12.73;;;8.50;;
49131;SDS011;35149;51.196;6.204;2024-01-30T08:54:26;10.63;;;8.55;;
49131;SDS011;35149;51.196;6.204;2024-01-30T08:56:53;11.63;;;8.38;;
49131;SDS011;35149;51.196;6.204;2024-01-30T08:59:21;14.52;;;9.43;;
49131;SDS011;35149;51.196;6.204;2024-01-30T09:01:48;9.75;;;8.02;;
49131;SDS011;35149;51.196;6.204;2024-01-30T09:04:29;11.70;;;7.97;;
49131;SDS011;35149;51.196;6.204;2024-01-30T09:06:56;8.63;;;7.72;;
49131;SDS011;35149;51.196;6.204;2024-01-30T09:09:22;9.65;;;7.47;;
49131;SDS011;35149;51.196;6.204;2024-01-30T09:11:49;9.35;;;7.07;;
49131;SDS011;35149;51.196;6.204;2024-01-30T09:14:16;7.07;;;6.32;;
49131;SDS011;35149;51.196;6.204;2024-01-30T09:16:42;9.75;;;6.45;;
49131;SDS011;35149;51.196;6.204;2024-01-30T09:19:09;6.57;;;5.88;;
49131;SDS011;35149;51.196;6.204;2024-01-30T09:21:39;8.93;;;5.90;;
49131;SDS011;35149;51.196;6.204;2024-01-30T09:24:05;8.13;;;6.43;;
49131;SDS011;35149;51.196;6.204;2024-01-30T09:26:32;8.15;;;5.82;;
49131;SDS011;35149;51.196;6.204;2024-01-30T09:28:59;10.00;;;6.63;;
49131;SDS011;35149;51.196;6.204;2024-01-30T09:31:25;10.65;;;7.18;;
49131;SDS011;35149;51.196;6.204;2024-01-30T09:33:52;9.52;;;6.60;;
49131;SDS011;35149;51.196;6.204;2024-01-30T09:36:20;11.90;;;7.05;;
49131;SDS011;35149;51.196;6.204;2024-01-30T09:38:47;8.75;;;6.72;;
49131;SDS011;35149;51.196;6.204;2024-01-30T09:41:14;9.27;;;6.47;;
49131;SDS011;35149;51.196;6.204;2024-01-30T09:43:41;7.32;;;5.78;;
49131;SDS011;35149;51.196;6.204;2024-01-30T09:46:14;8.73;;;6.72;;
49131;SDS011;35149;51.196;6.204;2024-01-30T09:48:47;8.18;;;5.78;;
49131;SDS011;35149;51.196;6.204;2024-01-30T09:51:14;7.72;;;5.68;;
49131;SDS011;35149;51.196;6.204;2024-01-30T09:53:42;8.18;;;6.28;;
49131;SDS011;35149;51.196;6.204;2024-01-30T09:56:12;9.40;;;5.68;;
49131;SDS011;35149;51.196;6.204;2024-01-30T09:58:38;7.97;;;5.40;;
49131;SDS011;35149;51.196;6.204;2024-01-30T10:01:08;5.78;;;5.18;;
49131;SDS011;35149;51.196;6.204;2024-01-30T10:03:35;6.63;;;5.35;;
49131;SDS011;35149;51.196;6.204;2024-01-30T10:06:02;6.88;;;5.93;;
49131;SDS011;35149;51.196;6.204;2024-01-30T10:08:29;5.32;;;4.57;;
49131;SDS011;35149;51.196;6.204;2024-01-30T10:10:59;8.52;;;5.75;;
49131;SDS011;35149;51.196;6.204;2024-01-30T10:13:29;8.25;;;5.80;;
49131;SDS011;35149;51.196;6.204;2024-01-30T10:15:55;7.68;;;5.22;;
49131;SDS011;35149;51.196;6.204;2024-01-30T10:18:24;8.38;;;5.63;;
49131;SDS011;35149;51.196;6.204;2024-01-30T10:20:51;6.47;;;5.70;;
49131;SDS011;35149;51.196;6.204;2024-01-30T10:23:18;7.82;;;5.63;;
49131;SDS011;35149;51.196;6.204;2024-01-30T10:25:46;7.95;;;6.22;;
49131;SDS011;35149;51.196;6.204;2024-01-30T10:28:13;7.25;;;5.13;;
49131;SDS011;35149;51.196;6.204;2024-01-30T10:30:40;8.70;;;6.80;;
49131;SDS011;35149;51.196;6.204;2024-01-30T10:33:06;7.70;;;5.50;;
49131;SDS011;35149;51.196;6.204;2024-01-30T10:35:34;7.90;;;5.55;;
49131;SDS011;35149;51.196;6.204;2024-01-30T10:38:01;6.88;;;5.30;;
49131;SDS011;35149;51.196;6.204;2024-01-30T10:40:28;9.95;;;6.25;;
49131;SDS011;35149;51.196;6.204;2024-01-30T10:42:56;8.98;;;6.18;;
49131;SDS011;35149;51.196;6.204;2024-01-30T10:45:30;7.70;;;5.38;;
49131;SDS011;35149;51.196;6.204;2024-01-30T10:47:59;5.35;;;4.85;;
49131;SDS011;35149;51.196;6.204;2024-01-30T10:50:27;8.02;;;5.32;;
49131;SDS011;35149;51.196;6.204;2024-01-30T10:52:57;8.50;;;5.47;;
49131;SDS011;35149;51.196;6.204;2024-01-30T10:55:25;7.72;;;5.60;;
49131;SDS011;35149;51.196;6.204;2024-01-30T10:57:54;7.30;;;5.60;;
49131;SDS011;35149;51.196;6.204;2024-01-30T11:00:21;6.97;;;5.93;;
49131;SDS011;35149;51.196;6.204;2024-01-30T11:02:50;7.88;;;5.95;;
49131;SDS011;35149;51.196;6.204;2024-01-30T11:05:24;8.23;;;5.50;;
49131;SDS011;35149;51.196;6.204;2024-01-30T11:07:59;9.80;;;6.28;;
49131;SDS011;35149;51.196;6.204;2024-01-30T11:10:46;7.20;;;5.72;;
49131;SDS011;35149;51.196;6.204;2024-01-30T11:13:14;8.00;;;6.13;;
49131;SDS011;35149;51.196;6.204;2024-01-30T11:15:41;13.35;;;7.72;;
49131;SDS011;35149;51.196;6.204;2024-01-30T11:18:07;9.35;;;5.93;;
49131;SDS011;35149;51.196;6.204;2024-01-30T11:20:34;11.05;;;6.70;;
49131;SDS011;35149;51.196;6.204;2024-01-30T11:23:11;8.85;;;7.03;;
49131;SDS011;35149;51.196;6.204;2024-01-30T11:25:38;9.43;;;6.80;;
49131;SDS011;35149;51.196;6.204;2024-01-30T11:28:05;9.85;;;6.25;;
49131;SDS011;35149;51.196;6.204;2024-01-30T11:30:31;8.77;;;6.13;;
49131;SDS011;35149;51.196;6.204;2024-01-30T11:32:59;8.35;;;5.95;;
49131;SDS011;35149;51.196;6.204;2024-01-30T11:35:29;11.98;;;6.28;;
49131;SDS011;35149;51.196;6.204;2024-01-30T11:37:59;7.45;;;5.88;;
49131;SDS011;35149;51.196;6.204;2024-01-30T11:40:27;7.15;;;5.38;;
49131;SDS011;35149;51.196;6.204;2024-01-30T11:42:56;7.95;;;6.43;;
49131;SDS011;35149;51.196;6.204;2024-01-30T11:45:25;8.63;;;5.82;;
49131;SDS011;35149;51.196;6.204;2024-01-30T11:47:54;8.93;;;5.50;;
49131;SDS011;35149;51.196;6.204;2024-01-30T11:50:21;8.75;;;5.78;;
49131;SDS011;35149;51.196;6.204;2024-01-30T11:52:48;7.97;;;5.88;;
49131;SDS011;35149;51.196;6.204;2024-01-30T11:55:15;8.73;;;6.78;;
49131;SDS011;35149;51.196;6.204;2024-01-30T11:57:42;7.95;;;5.90;;
49131;SDS011;35149;51.196;6.204;2024-01-30T12:00:28;8.23;;;6.10;;
49131;SDS011;35149;51.196;6.204;2024-01-30T12:02:57;7.45;;;6.72;;
49131;SDS011;35149;51.196;6.204;2024-01-30T12:05:26;8.60;;;6.65;;
49131;SDS011;35149;51.196;6.204;2024-01-30T12:07:54;9.27;;;6.65;;
49131;SDS011;35149;51.196;6.204;2024-01-30T12:10:25;8.65;;;6.03;;
49131;SDS011;35149;51.196;6.204;2024-01-30T12:12:54;12.32;;;7.25;;
49131;SDS011;35149;51.196;6.204;2024-01-30T12:15:21;11.93;;;6.47;;
49131;SDS011;35149;51.196;6.204;2024-01-30T12:17:49;10.20;;;6.25;;
49131;SDS011;35149;51.196;6.204;2024-01-30T12:20:17;10.43;;;6.47;;
49131;SDS011;35149;51.196;6.204;2024-01-30T12:22:46;10.10;;;6.25;;
49131;SDS011;35149;51.196;6.204;2024-01-30T12:25:18;16.88;;;6.47;;
49131;SDS011;35149;51.196;6.204;2024-01-30T12:27:47;8.95;;;6.93;;
49131;SDS011;35149;51.196;6.204;2024-01-30T12:30:17;10.05;;;7.57;;
49131;SDS011;35149;51.196;6.204;2024-01-30T12:32:47;10.30;;;7.05;;
49131;SDS011;35149;51.196;6.204;2024-01-30T12:35:16;9.55;;;6.90;;
49131;SDS011;35149;51.196;6.204;2024-01-30T12:37:44;8.10;;;6.40;;
49131;SDS011;35149;51.196;6.204;2024-01-30T12:40:12;8.82;;;6.38;;
49131;SDS011;35149;51.196;6.204;2024-01-30T12:42:41;11.02;;;6.22;;
49131;SDS011;35149;51.196;6.204;2024-01-30T12:45:08;10.50;;;6.28;;
49131;SDS011;35149;51.196;6.204;2024-01-30T12:47:35;9.65;;;7.03;;
49131;SDS011;35149;51.196;6.204;2024-01-30T12:50:02;9.90;;;6.38;;
49131;SDS011;35149;51.196;6.204;2024-01-30T12:52:29;8.18;;;6.53;;
49131;SDS011;35149;51.196;6.204;2024-01-30T12:54:56;7.63;;;6.15;;
49131;SDS011;35149;51.196;6.204;2024-01-30T12:57:24;7.40;;;6.32;;
49131;SDS011;35149;51.196;6.204;2024-01-30T12:59:51;9.88;;;6.93;;
49131;SDS011;35149;51.196;6.204;2024-01-30T13:02:19;10.80;;;7.32;;
49131;SDS011;35149;51.196;6.204;2024-01-30T13:04:46;10.07;;;6.57;;
49131;SDS011;35149;51.196;6.204;2024-01-30T13:07:15;10.13;;;6.85;;
49131;SDS011;35149;51.196;6.204;2024-01-30T13:09:42;10.20;;;6.38;;
49131;SDS011;35149;51.196;6.204;2024-01-30T13:12:11;9.20;;;7.68;;
49131;SDS011;35149;51.196;6.204;2024-01-30T13:14:38;10.73;;;6.95;;
49131;SDS011;35149;51.196;6.204;2024-01-30T13:17:05;10.10;;;7.28;;
49131;SDS011;35149;51.196;6.204;2024-01-30T13:19:32;13.13;;;6.65;;
49131;SDS011;35149;51.196;6.204;2024-01-30T13:21:59;8.88;;;6.55;;
49131;SDS011;35149;51.196;6.204;2024-01-30T13:24:25;12.70;;;7.13;;
49131;SDS011;35149;51.196;6.204;2024-01-30T13:26:53;9.68;;;6.97;;
49131;SDS011;35149;51.196;6.204;2024-01-30T13:29:19;12.45;;;7.13;;
49131;SDS011;35149;51.196;6.204;2024-01-30T13:31:46;10.77;;;7.32;;
49131;SDS011;35149;51.196;6.204;2024-01-30T13:34:13;10.80;;;7.28;;
49131;SDS011;35149;51.196;6.204;2024-01-30T13:36:42;9.15;;;6.28;;
49131;SDS011;35149;51.196;6.204;2024-01-30T13:39:09;8.60;;;6.57;;
49131;SDS011;35149;51.196;6.204;2024-01-30T13:41:37;9.32;;;7.25;;
49131;SDS011;35149;51.196;6.204;2024-01-30T13:44:04;10.23;;;7.57;;
49131;SDS011;35149;51.196;6.204;2024-01-30T13:46:31;11.07;;;7.05;;
49131;SDS011;35149;51.196;6.204;2024-01-30T13:48:58;9.25;;;7.78;;
49131;SDS011;35149;51.196;6.204;2024-01-30T13:51:26;9.38;;;7.07;;
49131;SDS011;35149;51.196;6.204;2024-01-30T13:53:53;10.93;;;7.15;;
49131;SDS011;35149;51.196;6.204;2024-01-30T13:56:20;8.18;;;6.50;;
49131;SDS011;35149;51.196;6.204;2024-01-30T13:58:50;10.63;;;7.13;;
49131;SDS011;35149;51.196;6.204;2024-01-30T14:01:17;8.98;;;6.30;;
49131;SDS011;35149;51.196;6.204;2024-01-30T14:03:44;8.80;;;6.97;;
49131;SDS011;35149;51.196;6.204;2024-01-30T14:06:11;7.90;;;6.57;;
49131;SDS011;35149;51.196;6.204;2024-01-30T14:08:39;6.47;;;5.78;;
49131;SDS011;35149;51.196;6.204;2024-01-30T14:11:08;11.30;;;7.30;;
49131;SDS011;35149;51.196;6.204;2024-01-30T14:13:35;9.00;;;6.80;;
49131;SDS011;35149;51.196;6.204;2024-01-30T14:16:02;7.40;;;5.50;;
49131;SDS011;35149;51.196;6.204;2024-01-30T14:18:32;7.93;;;6.10;;
49131;SDS011;35149;51.196;6.204;2024-01-30T14:20:58;9.60;;;5.45;;
49131;SDS011;35149;51.196;6.204;2024-01-30T14:23:25;7.65;;;4.78;;
49131;SDS011;35149;51.196;6.204;2024-01-30T14:25:52;4.88;;;3.95;;
49131;SDS011;35149;51.196;6.204;2024-01-30T14:28:18;5.43;;;3.38;;
49131;SDS011;35149;51.196;6.204;2024-01-30T14:30:45;6.32;;;4.35;;
49131;SDS011;35149;51.196;6.204;2024-01-30T14:33:12;5.18;;;3.88;;
49131;SDS011;35149;51.196;6.204;2024-01-30T14:35:39;7.03;;;3.67;;
49131;SDS011;35149;51.196;6.204;2024-01-30T14:38:06;4.15;;;2.85;;
49131;SDS011;35149;51.196;6.204;2024-01-30T14:40:33;6.13;;;3.30;;
49131;SDS011;35149;51.196;6.204;2024-01-30T14:43:00;8.15;;;3.58;;
49131;SDS011;35149;51.196;6.204;2024-01-30T14:45:27;3.97;;;2.45;;
49131;SDS011;35149;51.196;6.204;2024-01-30T14:47:54;4.05;;;2.90;;